createdAt,value
2019-05-09T00:00:23.357Z,0.00
2019-05-09T00:01:23.665Z,0.00
2019-05-09T00:02:24.304Z,0.00
2019-05-09T00:03:24.130Z,0.00
2019-05-09T00:04:23.293Z,0.00
2019-05-09T00:05:25.458Z,0.00
2019-05-09T00:06:24.038Z,0.00
2019-05-09T00:07:23.457Z,0.00
2019-05-09T00:08:23.521Z,0.00
2019-05-09T00:09:23.590Z,0.00
2019-05-09T00:10:37.714Z,0.00
2019-05-09T00:11:24.586Z,0.00
2019-05-09T00:12:23.766Z,0.00
2019-05-09T00:13:23.897Z,0.00
2019-05-09T00:14:23.923Z,0.00
2019-05-09T00:15:24.251Z,0.00
2019-05-09T00:16:24.019Z,0.00
2019-05-09T00:17:24.080Z,0.00
2019-05-09T00:18:24.138Z,0.00
2019-05-09T00:19:24.222Z,0.00
2019-05-09T00:20:24.264Z,0.00
2019-05-09T00:21:24.322Z,0.00
2019-05-09T00:22:24.387Z,0.00
2019-05-09T00:23:24.447Z,0.00
2019-05-09T00:24:24.514Z,0.00
2019-05-09T00:25:24.578Z,0.00
2019-05-09T00:26:24.630Z,0.00
2019-05-09T00:27:24.694Z,0.00
2019-05-09T00:28:24.754Z,0.00
2019-05-09T00:29:24.823Z,0.00
2019-05-09T00:30:24.886Z,0.00
2019-05-09T00:31:24.943Z,0.00
2019-05-09T00:32:25.003Z,0.00
2019-05-09T00:33:25.065Z,0.00
2019-05-09T00:34:25.143Z,0.00
2019-05-09T00:35:25.189Z,0.00
2019-05-09T00:36:25.248Z,0.00
2019-05-09T00:37:25.311Z,0.00
2019-05-09T00:38:25.376Z,0.00
2019-05-09T00:39:25.445Z,0.00
2019-05-09T00:40:25.504Z,0.00
2019-05-09T00:41:25.561Z,0.00
2019-05-09T00:42:25.619Z,0.00
2019-05-09T00:43:25.680Z,0.00
2019-05-09T00:44:25.747Z,0.00
2019-05-09T00:45:25.811Z,0.00
2019-05-09T00:46:25.871Z,0.00
2019-05-09T00:47:25.928Z,0.00
2019-05-09T00:48:25.988Z,0.00
2019-05-09T00:49:26.061Z,0.00
2019-05-09T00:50:29.277Z,0.00
2019-05-09T00:51:26.177Z,0.00
2019-05-09T00:52:26.236Z,0.00
2019-05-09T00:53:26.296Z,0.00
2019-05-09T00:54:26.376Z,0.00
2019-05-09T00:55:26.427Z,0.00
2019-05-09T00:56:26.482Z,0.00
2019-05-09T00:57:26.544Z,0.00
2019-05-09T00:58:26.609Z,0.00
2019-05-09T00:59:26.680Z,0.00
2019-05-09T01:00:26.737Z,0.00
2019-05-09T01:01:26.792Z,0.00
2019-05-09T01:02:26.860Z,0.00
2019-05-09T01:03:26.917Z,0.00
2019-05-09T01:04:26.989Z,0.00
2019-05-09T01:05:27.049Z,0.00
2019-05-09T01:06:27.106Z,0.00
2019-05-09T01:07:27.161Z,0.00
2019-05-09T01:08:27.222Z,0.00
2019-05-09T01:09:27.396Z,0.00
2019-05-09T01:10:27.344Z,0.00
2019-05-09T01:11:27.409Z,0.00
2019-05-09T01:12:27.469Z,0.00
2019-05-09T01:13:27.532Z,0.00
2019-05-09T01:14:27.600Z,0.00
2019-05-09T01:15:27.660Z,0.00
2019-05-09T01:16:27.717Z,0.00
2019-05-09T01:17:27.780Z,0.00
2019-05-09T01:18:27.845Z,0.00
2019-05-09T01:19:27.909Z,0.00
2019-05-09T01:20:27.972Z,0.00
2019-05-09T01:21:28.021Z,0.00
2019-05-09T01:22:28.085Z,0.00
2019-05-09T01:23:28.149Z,0.00
2019-05-09T01:24:28.231Z,0.00
2019-05-09T01:25:28.271Z,0.00
2019-05-09T01:26:28.334Z,0.00
2019-05-09T01:27:28.394Z,0.00
2019-05-09T01:28:28.454Z,0.00
2019-05-09T01:29:28.525Z,0.00
2019-05-09T01:30:28.586Z,0.00
2019-05-09T01:31:28.641Z,0.00
2019-05-09T01:32:28.703Z,0.00
2019-05-09T01:33:28.762Z,0.00
2019-05-09T01:34:28.834Z,0.00
2019-05-09T01:35:28.895Z,0.00
2019-05-09T01:36:28.950Z,0.00
2019-05-09T01:37:29.014Z,0.00
2019-05-09T01:38:29.074Z,0.00
2019-05-09T01:39:29.231Z,0.00
2019-05-09T01:40:29.195Z,0.00
2019-05-09T01:41:33.398Z,0.00
2019-05-09T01:42:29.318Z,0.00
2019-05-09T01:43:29.382Z,0.00
2019-05-09T01:44:29.462Z,0.00
2019-05-09T01:45:29.511Z,0.00
2019-05-09T01:46:29.566Z,0.00
2019-05-09T01:47:29.626Z,0.00
2019-05-09T01:48:29.690Z,0.00
2019-05-09T01:49:29.761Z,0.00
2019-05-09T01:50:29.820Z,0.00
2019-05-09T01:51:29.874Z,0.00
2019-05-09T01:52:29.935Z,0.00
2019-05-09T01:53:29.999Z,0.00
2019-05-09T01:54:30.066Z,0.00
2019-05-09T01:55:30.127Z,0.00
2019-05-09T01:56:30.183Z,0.00
2019-05-09T01:57:30.248Z,0.00
2019-05-09T01:58:30.307Z,0.00
2019-05-09T01:59:30.467Z,0.00
2019-05-09T02:00:30.432Z,0.00
2019-05-09T02:01:30.492Z,0.00
2019-05-09T02:02:30.551Z,0.00
2019-05-09T02:03:30.621Z,0.00
2019-05-09T02:04:30.684Z,0.00
2019-05-09T02:05:30.750Z,0.00
2019-05-09T02:06:30.800Z,0.00
2019-05-09T02:07:33.115Z,0.00
2019-05-09T02:08:30.923Z,0.00
2019-05-09T02:09:30.996Z,0.00
2019-05-09T02:10:31.067Z,0.00
2019-05-09T02:11:41.711Z,0.00
2019-05-09T02:12:31.172Z,0.00
2019-05-09T02:13:33.623Z,0.00
2019-05-09T02:14:31.388Z,0.00
2019-05-09T02:15:31.360Z,0.00
2019-05-09T02:16:33.640Z,0.00
2019-05-09T02:17:33.425Z,0.00
2019-05-09T02:18:33.401Z,0.00
2019-05-09T02:19:33.192Z,0.00
2019-05-09T02:20:33.260Z,0.00
2019-05-09T02:21:31.724Z,0.00
2019-05-09T02:22:34.144Z,0.00
2019-05-09T02:23:33.885Z,0.00
2019-05-09T02:24:33.826Z,0.00
2019-05-09T02:25:33.495Z,0.00
2019-05-09T02:26:33.485Z,0.00
2019-05-09T02:27:33.201Z,0.00
2019-05-09T02:28:34.103Z,0.00
2019-05-09T02:29:33.745Z,0.00
2019-05-09T02:30:35.773Z,0.00
2019-05-09T02:31:35.239Z,0.00
2019-05-09T02:32:34.751Z,0.00
2019-05-09T02:33:34.752Z,0.00
2019-05-09T02:34:35.357Z,0.00
2019-05-09T02:35:39.628Z,0.00
2019-05-09T02:36:32.653Z,0.00
2019-05-09T02:37:32.710Z,0.00
2019-05-09T02:38:32.783Z,0.00
2019-05-09T02:39:32.841Z,0.00
2019-05-09T02:40:32.898Z,0.00
2019-05-09T02:41:32.968Z,0.00
2019-05-09T02:42:33.017Z,0.00
2019-05-09T02:43:33.079Z,0.00
2019-05-09T02:44:33.229Z,0.00
2019-05-09T02:45:33.199Z,0.00
2019-05-09T02:46:33.274Z,0.00
2019-05-09T02:47:33.326Z,0.00
2019-05-09T02:48:33.393Z,0.00
2019-05-09T02:49:33.454Z,0.00
2019-05-09T02:50:33.514Z,0.00
2019-05-09T02:51:33.570Z,0.00
2019-05-09T02:52:33.632Z,0.00
2019-05-09T02:53:33.692Z,0.00
2019-05-09T02:54:33.767Z,0.00
2019-05-09T02:55:33.822Z,0.00
2019-05-09T02:56:33.880Z,0.00
2019-05-09T02:57:33.938Z,0.00
2019-05-09T02:58:34.000Z,0.00
2019-05-09T02:59:34.079Z,0.00
2019-05-09T03:00:34.130Z,0.00
2019-05-09T03:01:34.186Z,0.00
2019-05-09T03:02:34.246Z,0.00
2019-05-09T03:03:34.310Z,0.00
2019-05-09T03:04:34.381Z,0.00
2019-05-09T03:05:34.438Z,0.00
2019-05-09T03:06:34.492Z,0.00
2019-05-09T03:07:34.552Z,0.00
2019-05-09T03:08:34.613Z,0.00
2019-05-09T03:09:34.689Z,0.00
2019-05-09T03:10:34.744Z,0.00
2019-05-09T03:11:34.805Z,0.00
2019-05-09T03:12:36.606Z,0.00
2019-05-09T03:13:34.918Z,0.00
2019-05-09T03:14:34.992Z,0.00
2019-05-09T03:15:35.047Z,0.00
2019-05-09T03:16:35.107Z,0.00
2019-05-09T03:17:35.163Z,0.00
2019-05-09T03:18:35.223Z,0.00
2019-05-09T03:19:38.416Z,0.00
2019-05-09T03:20:35.349Z,0.00
2019-05-09T03:21:38.764Z,4.00
2019-05-09T03:22:35.469Z,4.00
2019-05-09T03:23:38.574Z,4.00
2019-05-09T03:24:35.600Z,0.00
2019-05-09T03:25:35.657Z,4.00
2019-05-09T03:26:38.440Z,4.00
2019-05-09T03:27:38.922Z,4.00
2019-05-09T03:28:38.674Z,4.00
2019-05-09T03:29:35.904Z,4.00
2019-05-09T03:30:39.351Z,8.00
2019-05-09T03:31:39.371Z,8.00
2019-05-09T03:32:38.751Z,8.00
2019-05-09T03:33:40.333Z,8.00
2019-05-09T03:34:37.262Z,8.00
2019-05-09T03:35:37.881Z,12.00
2019-05-09T03:36:38.412Z,12.00
2019-05-09T03:37:37.844Z,12.00
2019-05-09T03:38:37.724Z,16.00
2019-05-09T03:39:37.735Z,20.00
2019-05-09T03:40:37.757Z,20.00
2019-05-09T03:41:36.628Z,20.00
2019-05-09T03:42:43.382Z,24.00
2019-05-09T03:43:37.699Z,24.00
2019-05-09T03:44:38.525Z,28.00
2019-05-09T03:45:37.676Z,24.00
2019-05-09T03:46:38.443Z,28.00
2019-05-09T03:47:37.662Z,32.00
2019-05-09T03:48:37.485Z,36.00
2019-05-09T03:49:37.675Z,36.00
2019-05-09T03:50:38.311Z,40.00
2019-05-09T03:51:37.884Z,44.00
2019-05-09T03:52:37.375Z,48.00
2019-05-09T03:53:37.936Z,52.00
2019-05-09T03:54:37.662Z,56.00
2019-05-09T03:55:38.385Z,56.00
2019-05-09T03:56:37.612Z,64.00
2019-05-09T03:57:37.601Z,64.00
2019-05-09T03:58:38.611Z,72.00
2019-05-09T03:59:38.213Z,80.00
2019-05-09T04:00:37.794Z,84.00
2019-05-09T04:01:38.242Z,92.00
2019-05-09T04:02:38.393Z,100.00
2019-05-09T04:03:37.970Z,108.00
2019-05-09T04:04:38.430Z,116.00
2019-05-09T04:05:38.098Z,124.00
2019-05-09T04:06:39.128Z,136.00
2019-05-09T04:07:38.505Z,152.00
2019-05-09T04:08:38.275Z,156.00
2019-05-09T04:09:39.736Z,168.00
2019-05-09T04:10:38.567Z,184.00
2019-05-09T04:11:38.458Z,196.00
2019-05-09T04:12:52.801Z,212.00
2019-05-09T04:13:38.646Z,224.00
2019-05-09T04:14:38.647Z,244.00
2019-05-09T04:15:38.714Z,260.00
2019-05-09T04:16:38.762Z,280.00
2019-05-09T04:17:38.829Z,300.00
2019-05-09T04:18:40.320Z,320.00
2019-05-09T04:19:40.541Z,348.00
2019-05-09T04:20:39.015Z,372.00
2019-05-09T04:21:39.066Z,396.00
2019-05-09T04:22:39.136Z,420.00
2019-05-09T04:23:39.204Z,448.00
2019-05-09T04:24:39.363Z,468.00
2019-05-09T04:25:39.322Z,492.00
2019-05-09T04:26:39.375Z,512.00
2019-05-09T04:27:39.457Z,544.00
2019-05-09T04:28:39.965Z,584.00
2019-05-09T04:29:39.563Z,644.00
2019-05-09T04:30:39.622Z,716.00
2019-05-09T04:31:39.692Z,788.00
2019-05-09T04:32:39.738Z,840.00
2019-05-09T04:33:39.804Z,884.00
2019-05-09T04:34:39.867Z,912.00
2019-05-09T04:35:39.936Z,936.00
2019-05-09T04:36:39.994Z,992.00
2019-05-09T04:37:40.048Z,1040.00
2019-05-09T04:38:40.115Z,1048.00
2019-05-09T04:39:40.747Z,1008.00
2019-05-09T04:40:44.994Z,960.00
2019-05-09T04:41:40.292Z,916.00
2019-05-09T04:42:44.270Z,900.00
2019-05-09T04:43:40.420Z,908.00
2019-05-09T04:44:40.481Z,956.00
2019-05-09T04:45:41.930Z,984.00
2019-05-09T04:46:40.596Z,992.00
2019-05-09T04:47:43.418Z,1000.00
2019-05-09T04:48:40.719Z,1040.00
2019-05-09T04:49:44.977Z,1084.00
2019-05-09T04:50:40.852Z,1128.00
2019-05-09T04:51:40.904Z,1148.00
2019-05-09T04:52:40.964Z,1144.00
2019-05-09T04:53:41.025Z,1108.00
2019-05-09T04:54:41.102Z,1080.00
2019-05-09T04:55:41.156Z,1092.00
2019-05-09T04:56:41.208Z,1160.00
2019-05-09T04:57:41.272Z,1220.00
2019-05-09T04:58:41.334Z,1280.00
2019-05-09T04:59:41.401Z,1372.00
2019-05-09T05:00:41.460Z,1432.00
2019-05-09T05:01:41.523Z,1416.00
2019-05-09T05:02:41.576Z,1360.00
2019-05-09T05:03:41.641Z,1396.00
2019-05-09T05:04:41.705Z,1436.00
2019-05-09T05:05:41.770Z,1500.00
2019-05-09T05:06:41.827Z,1584.00
2019-05-09T05:07:41.885Z,1624.00
2019-05-09T05:08:41.946Z,1704.00
2019-05-09T05:09:42.014Z,1792.00
2019-05-09T05:10:42.082Z,1772.00
2019-05-09T05:11:42.131Z,1676.00
2019-05-09T05:12:42.197Z,1520.00
2019-05-09T05:13:42.254Z,1404.00
2019-05-09T05:14:42.406Z,1312.00
2019-05-09T05:15:42.377Z,1256.00
2019-05-09T05:16:42.440Z,1228.00
2019-05-09T05:17:42.503Z,1216.00
2019-05-09T05:18:42.562Z,1208.00
2019-05-09T05:19:42.629Z,1212.00
2019-05-09T05:20:42.689Z,1244.00
2019-05-09T05:21:42.746Z,1332.00
2019-05-09T05:22:42.805Z,1448.00
2019-05-09T05:23:42.870Z,1600.00
2019-05-09T05:24:42.938Z,1768.00
2019-05-09T05:25:42.998Z,1940.00
2019-05-09T05:26:43.055Z,2140.00
2019-05-09T05:27:43.114Z,2320.00
2019-05-09T05:28:43.177Z,2484.00
2019-05-09T05:29:43.238Z,2656.00
2019-05-09T05:30:43.390Z,2784.00
2019-05-09T05:31:43.362Z,2956.00
2019-05-09T05:32:43.427Z,3236.00
2019-05-09T05:33:43.485Z,3400.00
2019-05-09T05:34:43.546Z,3488.00
2019-05-09T05:35:43.614Z,3516.00
2019-05-09T05:36:43.678Z,3504.00
2019-05-09T05:37:43.748Z,3460.00
2019-05-09T05:38:43.795Z,3568.00
2019-05-09T05:39:43.854Z,3640.00
2019-05-09T05:40:46.440Z,3656.00
2019-05-09T05:41:43.987Z,3632.00
2019-05-09T05:42:44.047Z,3464.00
2019-05-09T05:43:44.786Z,3276.00
2019-05-09T05:44:44.166Z,3124.00
2019-05-09T05:45:44.227Z,3088.00
2019-05-09T05:46:47.485Z,3072.00
2019-05-09T05:47:44.351Z,3028.00
2019-05-09T05:48:44.411Z,2960.00
2019-05-09T05:49:44.475Z,2844.00
2019-05-09T05:50:44.534Z,2904.00
2019-05-09T05:51:44.607Z,2956.00
2019-05-09T05:52:44.671Z,3080.00
2019-05-09T05:53:44.723Z,3168.00
2019-05-09T05:54:44.783Z,3200.00
2019-05-09T05:55:44.849Z,3264.00
2019-05-09T05:56:44.918Z,3404.00
2019-05-09T05:57:44.975Z,3576.00
2019-05-09T05:58:45.031Z,3664.00
2019-05-09T05:59:45.095Z,3708.00
2019-05-09T06:00:45.158Z,3668.00
2019-05-09T06:01:47.541Z,3636.00
2019-05-09T06:02:47.710Z,3848.00
2019-05-09T06:03:45.345Z,3940.00
2019-05-09T06:04:45.405Z,3864.00
2019-05-09T06:05:49.318Z,3668.00
2019-05-09T06:06:47.832Z,3888.00
2019-05-09T06:07:45.599Z,3952.00
2019-05-09T06:08:45.651Z,3904.00
2019-05-09T06:09:47.696Z,3880.00
2019-05-09T06:10:48.162Z,3936.00
2019-05-09T06:11:48.239Z,3984.00
2019-05-09T06:12:48.036Z,3992.00
2019-05-09T06:13:54.438Z,4000.00
2019-05-09T06:14:47.966Z,4016.00
2019-05-09T06:15:48.111Z,4004.00
2019-05-09T06:16:48.310Z,4048.00
2019-05-09T06:17:48.477Z,4108.00
2019-05-09T06:18:47.525Z,4216.00
2019-05-09T06:19:48.182Z,4236.00
2019-05-09T06:20:48.699Z,4280.00
2019-05-09T06:21:48.481Z,4400.00
2019-05-09T06:22:47.650Z,4520.00
2019-05-09T06:23:48.203Z,4624.00
2019-05-09T06:24:47.891Z,4720.00
2019-05-09T06:25:48.428Z,4828.00
2019-05-09T06:26:47.922Z,4992.00
2019-05-09T06:27:48.190Z,5148.00
2019-05-09T06:28:48.112Z,5352.00
2019-05-09T06:29:47.693Z,5724.00
2019-05-09T06:30:52.025Z,6108.00
2019-05-09T06:31:48.411Z,6240.00
2019-05-09T06:32:47.799Z,6616.00
2019-05-09T06:33:52.993Z,8160.00
2019-05-09T06:34:47.859Z,17024.00
2019-05-09T06:35:48.150Z,29568.00
2019-05-09T06:36:48.923Z,38688.00
2019-05-09T06:37:50.021Z,40512.00
2019-05-09T06:38:49.542Z,31616.00
2019-05-09T06:39:48.735Z,33120.00
2019-05-09T06:40:47.705Z,31328.00
2019-05-09T06:41:48.567Z,26464.00
2019-05-09T06:42:48.852Z,19424.00
2019-05-09T06:43:49.678Z,32352.00
2019-05-09T06:44:48.522Z,34720.00
2019-05-09T06:45:48.636Z,43776.00
2019-05-09T06:46:48.286Z,23808.00
2019-05-09T06:47:48.724Z,50592.00
2019-05-09T06:48:49.022Z,42400.00
2019-05-09T06:49:51.022Z,45120.00
2019-05-09T06:50:48.458Z,42400.00
2019-05-09T06:51:48.402Z,44288.00
2019-05-09T06:52:48.450Z,47872.00
2019-05-09T06:53:48.907Z,41088.00
2019-05-09T06:54:48.738Z,46880.00
2019-05-09T06:55:48.655Z,45056.00
2019-05-09T06:56:50.547Z,46176.00
2019-05-09T06:57:49.077Z,50336.00
2019-05-09T06:58:48.859Z,51616.00
2019-05-09T06:59:48.947Z,54272.00
2019-05-09T07:00:49.018Z,52128.00
2019-05-09T07:01:51.026Z,52288.00
2019-05-09T07:02:49.143Z,53248.00
2019-05-09T07:03:49.209Z,56896.00
2019-05-09T07:04:49.275Z,58112.00
2019-05-09T07:05:49.347Z,53824.00
2019-05-09T07:06:49.423Z,43168.00
2019-05-09T07:07:49.503Z,47168.00
2019-05-09T07:08:49.565Z,26496.00
2019-05-09T07:09:49.634Z,12856.00
2019-05-09T07:10:49.710Z,14924.00
2019-05-09T07:11:49.783Z,17472.00
2019-05-09T07:12:49.857Z,8504.00
2019-05-09T07:13:50.535Z,7944.00
2019-05-09T07:14:49.991Z,7900.00
2019-05-09T07:15:50.063Z,24192.00
2019-05-09T07:16:50.216Z,6720.00
2019-05-09T07:17:50.199Z,6104.00
2019-05-09T07:18:50.271Z,5964.00
2019-05-09T07:19:50.340Z,5728.00
2019-05-09T07:20:50.411Z,5828.00
2019-05-09T07:21:50.483Z,5744.00
2019-05-09T07:22:50.556Z,6220.00
2019-05-09T07:23:50.615Z,6180.00
2019-05-09T07:24:50.684Z,5468.00
2019-05-09T07:25:50.753Z,5488.00
2019-05-09T07:26:50.827Z,5252.00
2019-05-09T07:27:51.542Z,5420.00
2019-05-09T07:28:50.967Z,6168.00
2019-05-09T07:29:51.036Z,5592.00
2019-05-09T07:30:52.044Z,5512.00
2019-05-09T07:31:51.244Z,5684.00
2019-05-09T07:32:51.224Z,26400.00
2019-05-09T07:33:51.292Z,22560.00
2019-05-09T07:34:51.360Z,27456.00
2019-05-09T07:35:51.433Z,45088.00
2019-05-09T07:36:51.501Z,39904.00
2019-05-09T07:37:51.572Z,37056.00
2019-05-09T07:38:51.628Z,42656.00
2019-05-09T07:39:51.697Z,17312.00
2019-05-09T07:40:51.765Z,13120.00
2019-05-09T07:41:51.841Z,13224.00
2019-05-09T07:42:51.909Z,8776.00
2019-05-09T07:43:52.546Z,28064.00
2019-05-09T07:44:52.608Z,7396.00
2019-05-09T07:45:53.224Z,6900.00
2019-05-09T07:46:52.261Z,6312.00
2019-05-09T07:47:52.241Z,6252.00
2019-05-09T07:48:52.308Z,7472.00
2019-05-09T07:49:52.382Z,7084.00
2019-05-09T07:50:52.444Z,7072.00
2019-05-09T07:51:55.050Z,12072.00
2019-05-09T07:52:52.589Z,10948.00
2019-05-09T07:53:52.649Z,27648.00
2019-05-09T07:54:52.717Z,9300.00
2019-05-09T07:55:52.785Z,10420.00
2019-05-09T07:56:52.865Z,8964.00
2019-05-09T07:57:55.397Z,20768.00
2019-05-09T07:58:52.989Z,10620.00
2019-05-09T07:59:53.054Z,5584.00
2019-05-09T08:00:53.121Z,5472.00
2019-05-09T08:01:53.206Z,5964.00
2019-05-09T08:02:53.257Z,9976.00
2019-05-09T08:03:53.325Z,16832.00
2019-05-09T08:04:53.391Z,5152.00
2019-05-09T08:05:53.457Z,4052.00
2019-05-09T08:06:54.054Z,3032.00
2019-05-09T08:07:53.598Z,2436.00
2019-05-09T08:08:53.658Z,2348.00
2019-05-09T08:10:04.723Z,2640.00
2019-05-09T08:10:53.791Z,3172.00
2019-05-09T08:11:53.876Z,3892.00
2019-05-09T08:12:53.930Z,4748.00
2019-05-09T08:13:53.987Z,6052.00
2019-05-09T08:15:07.498Z,34272.00
2019-05-09T08:15:54.123Z,10448.00
2019-05-09T08:16:55.056Z,8196.00
2019-05-09T08:17:54.257Z,8144.00
2019-05-09T08:18:54.318Z,7872.00
2019-05-09T08:19:54.387Z,7628.00
2019-05-09T08:20:54.453Z,7284.00
2019-05-09T08:21:54.522Z,7344.00
2019-05-09T08:22:59.913Z,7764.00
2019-05-09T08:23:54.650Z,9524.00
2019-05-09T08:24:54.715Z,10052.00
2019-05-09T08:25:54.780Z,9516.00
2019-05-09T08:26:54.854Z,7964.00
2019-05-09T08:27:54.931Z,6844.00
2019-05-09T08:28:54.979Z,6416.00
2019-05-09T08:29:55.047Z,5620.00
2019-05-09T08:30:55.111Z,4956.00
2019-05-09T08:31:55.268Z,4408.00
2019-05-09T08:32:55.243Z,4012.00
2019-05-09T08:33:55.323Z,3896.00
2019-05-09T08:34:57.481Z,4112.00
2019-05-09T08:35:55.443Z,4604.00
2019-05-09T08:36:57.795Z,4696.00
2019-05-09T08:37:58.029Z,4588.00
2019-05-09T08:38:58.373Z,4840.00
2019-05-09T08:39:57.795Z,4776.00
2019-05-09T08:40:55.767Z,4828.00
2019-05-09T08:41:55.840Z,4792.00
2019-05-09T08:42:58.521Z,4712.00
2019-05-09T08:43:57.551Z,4220.00
2019-05-09T08:44:57.756Z,4004.00
2019-05-09T08:45:57.648Z,4080.00
2019-05-09T08:46:57.474Z,4632.00
2019-05-09T08:47:57.781Z,5260.00
2019-05-09T08:48:57.638Z,6132.00
2019-05-09T08:49:58.629Z,6024.00
2019-05-09T08:50:58.254Z,5660.00
2019-05-09T08:52:10.288Z,5272.00
2019-05-09T08:52:57.676Z,4948.00
2019-05-09T08:53:57.788Z,4916.00
2019-05-09T08:54:57.835Z,5252.00
2019-05-09T08:55:58.088Z,5448.00
2019-05-09T08:56:58.576Z,5392.00
2019-05-09T08:57:58.686Z,5400.00
2019-05-09T08:59:01.222Z,5548.00
2019-05-09T09:00:03.581Z,5924.00
2019-05-09T09:01:04.095Z,6176.00
2019-05-09T09:02:12.203Z,6556.00
2019-05-09T09:02:57.523Z,6740.00
2019-05-09T09:04:04.077Z,6636.00
2019-05-09T09:05:00.080Z,6732.00
2019-05-09T09:05:57.892Z,7528.00
2019-05-09T09:06:57.725Z,7460.00
2019-05-09T09:07:58.021Z,7100.00
2019-05-09T09:09:02.613Z,7016.00
2019-05-09T09:09:58.584Z,6944.00
2019-05-09T09:10:57.873Z,7192.00
2019-05-09T09:11:58.590Z,7200.00
2019-05-09T09:12:58.279Z,6948.00
2019-05-09T09:13:57.929Z,7092.00
2019-05-09T09:14:58.737Z,7612.00
2019-05-09T09:16:14.340Z,7492.00
2019-05-09T09:16:58.217Z,7500.00
2019-05-09T09:17:58.207Z,7904.00
2019-05-09T09:18:58.598Z,7656.00
2019-05-09T09:20:00.114Z,7164.00
2019-05-09T09:20:59.096Z,7620.00
2019-05-09T09:22:00.657Z,8444.00
2019-05-09T09:22:58.590Z,8272.00
2019-05-09T09:23:58.579Z,8076.00
2019-05-09T09:24:58.875Z,8064.00
2019-05-09T09:25:58.710Z,8052.00
2019-05-09T09:26:58.783Z,7860.00
2019-05-09T09:27:58.850Z,7756.00
2019-05-09T09:28:58.910Z,7712.00
2019-05-09T09:30:15.515Z,7748.00
2019-05-09T09:30:59.206Z,7840.00
2019-05-09T09:32:00.091Z,7888.00
2019-05-09T09:32:59.171Z,8016.00
2019-05-09T09:33:59.234Z,8052.00
2019-05-09T09:34:59.303Z,7916.00
2019-05-09T09:35:59.371Z,7912.00
2019-05-09T09:37:03.830Z,7952.00
2019-05-09T09:37:59.507Z,7980.00
2019-05-09T09:39:02.885Z,8716.00
2019-05-09T09:40:00.603Z,11960.00
2019-05-09T09:40:59.701Z,9316.00
2019-05-09T09:41:59.772Z,10800.00
2019-05-09T09:42:59.835Z,11540.00
2019-05-09T09:43:59.908Z,10356.00
2019-05-09T09:45:00.600Z,9352.00
2019-05-09T09:46:10.395Z,9168.00
2019-05-09T09:47:00.200Z,8824.00
2019-05-09T09:48:00.168Z,8760.00
2019-05-09T09:49:00.230Z,8696.00
2019-05-09T09:50:00.561Z,8200.00
2019-05-09T09:51:00.359Z,7900.00
2019-05-09T09:52:00.435Z,7672.00
2019-05-09T09:53:00.497Z,7452.00
2019-05-09T09:54:00.559Z,7520.00
2019-05-09T09:55:00.648Z,7384.00
2019-05-09T09:56:00.695Z,7044.00
2019-05-09T09:57:00.768Z,6592.00
2019-05-09T09:58:00.845Z,6460.00
2019-05-09T09:59:00.891Z,6432.00
2019-05-09T10:00:00.962Z,6544.00
2019-05-09T10:01:03.401Z,6488.00
2019-05-09T10:02:01.184Z,6368.00
2019-05-09T10:03:01.155Z,6252.00
2019-05-09T10:04:15.560Z,6184.00
2019-05-09T10:05:01.289Z,6108.00
2019-05-09T10:06:01.356Z,5928.00
2019-05-09T10:07:01.428Z,5540.00
2019-05-09T10:08:01.497Z,5288.00
2019-05-09T10:09:01.552Z,5104.00
2019-05-09T10:10:01.621Z,5016.00
2019-05-09T10:11:01.695Z,5000.00
2019-05-09T10:12:01.806Z,5008.00
2019-05-09T10:13:04.337Z,5048.00
2019-05-09T10:14:02.608Z,5088.00
2019-05-09T10:15:01.949Z,5020.00
2019-05-09T10:16:02.020Z,4852.00
2019-05-09T10:17:02.117Z,4608.00
2019-05-09T10:18:02.152Z,4428.00
2019-05-09T10:19:02.213Z,4336.00
2019-05-09T10:20:03.113Z,4456.00
2019-05-09T10:21:02.345Z,4808.00
2019-05-09T10:22:02.418Z,5024.00
2019-05-09T10:23:11.240Z,4972.00
2019-05-09T10:24:02.546Z,4856.00
2019-05-09T10:25:02.609Z,4720.00
2019-05-09T10:26:02.673Z,4464.00
2019-05-09T10:27:08.376Z,4120.00
2019-05-09T10:28:02.814Z,3832.00
2019-05-09T10:29:02.870Z,3664.00
2019-05-09T10:30:02.933Z,3516.00
2019-05-09T10:31:03.001Z,3348.00
2019-05-09T10:32:03.289Z,3168.00
2019-05-09T10:33:03.161Z,3032.00
2019-05-09T10:34:04.121Z,2928.00
2019-05-09T10:35:03.262Z,2864.00
2019-05-09T10:36:04.843Z,2776.00
2019-05-09T10:37:03.396Z,2660.00
2019-05-09T10:38:03.462Z,2512.00
2019-05-09T10:39:03.522Z,2416.00
2019-05-09T10:40:03.613Z,2376.00
2019-05-09T10:41:04.618Z,2372.00
2019-05-09T10:42:03.725Z,2388.00
2019-05-09T10:43:03.792Z,2404.00
2019-05-09T10:44:04.617Z,2432.00
2019-05-09T10:45:03.910Z,2476.00
2019-05-09T10:46:03.982Z,2544.00
2019-05-09T10:47:04.058Z,2640.00
2019-05-09T10:48:04.113Z,2804.00
2019-05-09T10:49:04.170Z,2980.00
2019-05-09T10:50:04.236Z,3164.00
2019-05-09T10:51:06.035Z,3372.00
2019-05-09T10:52:04.374Z,3568.00
2019-05-09T10:53:04.438Z,3756.00
2019-05-09T10:54:04.499Z,3892.00
2019-05-09T10:55:04.559Z,3920.00
2019-05-09T10:56:04.626Z,3864.00
2019-05-09T10:57:04.699Z,3816.00
2019-05-09T10:58:04.763Z,3936.00
2019-05-09T10:59:04.825Z,4148.00
2019-05-09T11:00:04.913Z,4352.00
2019-05-09T11:01:04.952Z,4508.00
2019-05-09T11:02:05.023Z,4612.00
2019-05-09T11:03:05.088Z,4764.00
2019-05-09T11:04:07.910Z,5012.00
2019-05-09T11:05:05.207Z,5280.00
2019-05-09T11:06:05.274Z,5480.00
2019-05-09T11:07:07.875Z,5600.00
2019-05-09T11:08:07.921Z,5592.00
2019-05-09T11:09:05.472Z,5580.00
2019-05-09T11:10:24.020Z,5632.00
2019-05-09T11:11:08.652Z,5700.00
2019-05-09T11:12:07.843Z,5904.00
2019-05-09T11:13:07.513Z,6148.00
2019-05-09T11:14:08.333Z,6336.00
2019-05-09T11:15:08.423Z,6488.00
2019-05-09T11:16:07.696Z,6768.00
2019-05-09T11:17:12.483Z,7184.00
2019-05-09T11:18:08.132Z,7248.00
2019-05-09T11:19:08.066Z,7244.00
2019-05-09T11:20:08.666Z,7216.00
2019-05-09T11:21:08.379Z,7332.00
2019-05-09T11:22:07.995Z,7532.00
2019-05-09T11:23:08.125Z,7852.00
2019-05-09T11:24:08.415Z,7852.00
2019-05-09T11:25:08.630Z,7756.00
2019-05-09T11:26:06.580Z,7784.00
2019-05-09T11:27:08.462Z,6976.00
2019-05-09T11:28:12.582Z,6572.00
2019-05-09T11:29:07.983Z,6396.00
2019-05-09T11:30:08.397Z,6316.00
2019-05-09T11:31:08.162Z,6324.00
2019-05-09T11:32:08.117Z,6508.00
2019-05-09T11:33:07.812Z,6632.00
2019-05-09T11:34:08.860Z,6828.00
2019-05-09T11:35:08.976Z,6932.00
2019-05-09T11:36:09.735Z,7080.00
2019-05-09T11:37:08.501Z,7220.00
2019-05-09T11:38:08.342Z,7452.00
2019-05-09T11:39:10.794Z,7712.00
2019-05-09T11:40:07.500Z,7932.00
2019-05-09T11:41:08.307Z,8068.00
2019-05-09T11:42:07.642Z,8124.00
2019-05-09T11:43:07.704Z,8108.00
2019-05-09T11:44:08.466Z,8088.00
2019-05-09T11:45:07.919Z,8004.00
2019-05-09T11:46:10.233Z,7952.00
2019-05-09T11:47:27.530Z,8048.00
2019-05-09T11:48:08.338Z,8688.00
2019-05-09T11:49:08.620Z,8256.00
2019-05-09T11:50:08.976Z,8196.00
2019-05-09T11:51:08.949Z,7944.00
2019-05-09T11:52:08.478Z,7992.00
2019-05-09T11:53:08.920Z,7860.00
2019-05-09T11:54:09.188Z,7784.00
2019-05-09T11:55:27.454Z,7796.00
2019-05-09T11:56:08.565Z,7796.00
2019-05-09T11:57:08.639Z,7800.00
2019-05-09T11:58:08.702Z,7792.00
2019-05-09T11:59:08.773Z,7756.00
2019-05-09T12:00:08.838Z,7832.00
2019-05-09T12:01:08.914Z,7896.00
2019-05-09T12:02:09.065Z,7928.00
2019-05-09T12:03:09.269Z,8112.00
2019-05-09T12:04:09.098Z,8208.00
2019-05-09T12:05:09.161Z,7816.00
2019-05-09T12:06:09.229Z,7728.00
2019-05-09T12:07:09.390Z,7792.00
2019-05-09T12:08:09.366Z,7360.00
2019-05-09T12:09:09.433Z,7440.00
2019-05-09T12:10:09.502Z,7816.00
2019-05-09T12:11:09.570Z,8108.00
2019-05-09T12:12:09.642Z,7724.00
2019-05-09T12:13:09.707Z,8008.00
2019-05-09T12:14:09.771Z,8772.00
2019-05-09T12:15:09.844Z,7652.00
2019-05-09T12:16:09.898Z,7400.00
2019-05-09T12:17:09.975Z,8372.00
2019-05-09T12:18:11.573Z,7616.00
2019-05-09T12:19:10.098Z,8012.00
2019-05-09T12:20:13.478Z,7556.00
2019-05-09T12:21:10.239Z,8500.00
2019-05-09T12:22:10.310Z,7228.00
2019-05-09T12:23:10.374Z,6636.00
2019-05-09T12:24:10.435Z,6360.00
2019-05-09T12:25:10.503Z,5816.00
2019-05-09T12:26:10.587Z,6632.00
2019-05-09T12:27:10.651Z,7176.00